sensor_id;sensor_type;location;lat;lon;timestamp;temperature;humidity
65203;HTU21D;51788;45.124;38.966;2023-05-07T00:00:01;17.28;73.35
65203;HTU21D;51788;45.124;38.966;2023-05-07T00:02:27;17.25;73.47
65203;HTU21D;51788;45.124;38.966;2023-05-07T00:04:52;17.19;73.45
65203;HTU21D;51788;45.124;38.966;2023-05-07T00:07:18;17.14;73.44
65203;HTU21D;51788;45.124;38.966;2023-05-07T00:09:44;17.16;73.56
65203;HTU21D;51788;45.124;38.966;2023-05-07T00:12:10;17.10;73.69
65203;HTU21D;51788;45.124;38.966;2023-05-07T00:14:36;17.10;73.86
65203;HTU21D;51788;45.124;38.966;2023-05-07T00:17:02;17.06;73.94
65203;HTU21D;51788;45.124;38.966;2023-05-07T00:19:28;17.02;74.03
65203;HTU21D;51788;45.124;38.966;2023-05-07T00:21:54;16.95;74.22
65203;HTU21D;51788;45.124;38.966;2023-05-07T00:24:21;16.91;74.47
65203;HTU21D;51788;45.124;38.966;2023-05-07T00:26:47;16.88;74.50
65203;HTU21D;51788;45.124;38.966;2023-05-07T00:29:13;16.88;74.64
65203;HTU21D;51788;45.124;38.966;2023-05-07T00:31:39;16.82;74.76
65203;HTU21D;51788;45.124;38.966;2023-05-07T00:34:05;16.82;74.88
65203;HTU21D;51788;45.124;38.966;2023-05-07T00:36:31;16.77;75.04
65203;HTU21D;51788;45.124;38.966;2023-05-07T00:38:59;16.77;75.28
65203;HTU21D;51788;45.124;38.966;2023-05-07T00:41:26;16.74;75.09
65203;HTU21D;51788;45.124;38.966;2023-05-07T00:43:52;16.69;75.18
65203;HTU21D;51788;45.124;38.966;2023-05-07T00:46:20;16.64;75.29
65203;HTU21D;51788;45.124;38.966;2023-05-07T00:48:47;16.64;75.36
65203;HTU21D;51788;45.124;38.966;2023-05-07T00:51:13;16.58;75.39
65203;HTU21D;51788;45.124;38.966;2023-05-07T00:53:39;16.50;75.40
65203;HTU21D;51788;45.124;38.966;2023-05-07T00:56:06;16.47;75.57
65203;HTU21D;51788;45.124;38.966;2023-05-07T00:58:33;16.37;75.68
65203;HTU21D;51788;45.124;38.966;2023-05-07T01:00:59;16.30;75.75
65203;HTU21D;51788;45.124;38.966;2023-05-07T01:03:25;16.27;75.78
65203;HTU21D;51788;45.124;38.966;2023-05-07T01:05:52;16.21;75.82
65203;HTU21D;51788;45.124;38.966;2023-05-07T01:08:20;16.18;75.86
65203;HTU21D;51788;45.124;38.966;2023-05-07T01:10:46;16.13;75.81
65203;HTU21D;51788;45.124;38.966;2023-05-07T01:13:12;16.11;76.01
65203;HTU21D;51788;45.124;38.966;2023-05-07T01:15:39;16.03;75.90
65203;HTU21D;51788;45.124;38.966;2023-05-07T01:18:07;16.04;75.95
65203;HTU21D;51788;45.124;38.966;2023-05-07T01:20:34;16.03;75.83
65203;HTU21D;51788;45.124;38.966;2023-05-07T01:23:01;15.97;75.87
65203;HTU21D;51788;45.124;38.966;2023-05-07T01:25:29;15.98;75.97
65203;HTU21D;51788;45.124;38.966;2023-05-07T01:27:58;15.91;76.15
65203;HTU21D;51788;45.124;38.966;2023-05-07T01:30:31;15.90;76.15
65203;HTU21D;51788;45.124;38.966;2023-05-07T01:33:08;15.88;76.19
65203;HTU21D;51788;45.124;38.966;2023-05-07T01:35:38;15.82;76.23
65203;HTU21D;51788;45.124;38.966;2023-05-07T01:38:05;15.78;76.28
65203;HTU21D;51788;45.124;38.966;2023-05-07T01:40:33;15.72;76.21
65203;HTU21D;51788;45.124;38.966;2023-05-07T01:43:01;15.68;76.18
65203;HTU21D;51788;45.124;38.966;2023-05-07T01:45:28;15.67;76.32
65203;HTU21D;51788;45.124;38.966;2023-05-07T01:47:55;15.67;76.37
65203;HTU21D;51788;45.124;38.966;2023-05-07T01:50:21;15.62;76.53
65203;HTU21D;51788;45.124;38.966;2023-05-07T01:52:50;15.55;76.42
65203;HTU21D;51788;45.124;38.966;2023-05-07T01:55:16;15.57;76.51
65203;HTU21D;51788;45.124;38.966;2023-05-07T01:57:42;15.53;76.32
65203;HTU21D;51788;45.124;38.966;2023-05-07T02:00:09;15.53;76.44
65203;HTU21D;51788;45.124;38.966;2023-05-07T02:02:41;15.51;76.34
65203;HTU21D;51788;45.124;38.966;2023-05-07T02:05:16;15.48;76.23
65203;HTU21D;51788;45.124;38.966;2023-05-07T02:07:45;15.44;76.22
65203;HTU21D;51788;45.124;38.966;2023-05-07T02:10:12;15.40;76.28
65203;HTU21D;51788;45.124;38.966;2023-05-07T02:12:38;15.37;76.27
65203;HTU21D;51788;45.124;38.966;2023-05-07T02:15:04;15.36;76.24
65203;HTU21D;51788;45.124;38.966;2023-05-07T02:17:31;15.34;76.22
65203;HTU21D;51788;45.124;38.966;2023-05-07T02:19:59;15.30;76.16
65203;HTU21D;51788;45.124;38.966;2023-05-07T02:22:25;15.29;76.12
65203;HTU21D;51788;45.124;38.966;2023-05-07T02:24:51;15.28;76.26
65203;HTU21D;51788;45.124;38.966;2023-05-07T02:27:17;15.23;76.28
65203;HTU21D;51788;45.124;38.966;2023-05-07T02:29:44;15.22;76.34
65203;HTU21D;51788;45.124;38.966;2023-05-07T02:32:10;15.16;76.29
65203;HTU21D;51788;45.124;38.966;2023-05-07T02:34:36;15.18;76.21
65203;HTU21D;51788;45.124;38.966;2023-05-07T02:37:03;15.19;76.24
65203;HTU21D;51788;45.124;38.966;2023-05-07T02:39:29;15.16;76.32
65203;HTU21D;51788;45.124;38.966;2023-05-07T02:41:55;15.15;76.28
65203;HTU21D;51788;45.124;38.966;2023-05-07T02:44:21;15.11;76.31
65203;HTU21D;51788;45.124;38.966;2023-05-07T02:46:50;15.06;76.32
65203;HTU21D;51788;45.124;38.966;2023-05-07T02:49:16;14.99;76.36
65203;HTU21D;51788;45.124;38.966;2023-05-07T02:51:42;14.96;76.37
65203;HTU21D;51788;45.124;38.966;2023-05-07T02:54:14;14.97;76.47
65203;HTU21D;51788;45.124;38.966;2023-05-07T02:56:40;14.93;76.35
65203;HTU21D;51788;45.124;38.966;2023-05-07T02:59:06;14.89;76.41
65203;HTU21D;51788;45.124;38.966;2023-05-07T03:01:37;14.87;76.39
65203;HTU21D;51788;45.124;38.966;2023-05-07T03:04:05;14.85;76.39
65203;HTU21D;51788;45.124;38.966;2023-05-07T03:06:31;14.82;76.35
65203;HTU21D;51788;45.124;38.966;2023-05-07T03:08:57;14.84;76.33
65203;HTU21D;51788;45.124;38.966;2023-05-07T03:11:23;14.80;76.35
65203;HTU21D;51788;45.124;38.966;2023-05-07T03:13:49;14.78;76.36
65203;HTU21D;51788;45.124;38.966;2023-05-07T03:16:16;14.72;76.31
65203;HTU21D;51788;45.124;38.966;2023-05-07T03:18:42;14.69;76.31
65203;HTU21D;51788;45.124;38.966;2023-05-07T03:21:08;14.63;76.28
65203;HTU21D;51788;45.124;38.966;2023-05-07T03:23:34;14.65;76.35
65203;HTU21D;51788;45.124;38.966;2023-05-07T03:26:00;14.65;76.33
65203;HTU21D;51788;45.124;38.966;2023-05-07T03:28:27;14.60;76.28
65203;HTU21D;51788;45.124;38.966;2023-05-07T03:30:58;14.62;76.17
65203;HTU21D;51788;45.124;38.966;2023-05-07T03:33:24;14.65;76.20
65203;HTU21D;51788;45.124;38.966;2023-05-07T03:35:50;14.63;76.21
65203;HTU21D;51788;45.124;38.966;2023-05-07T03:38:21;14.65;76.12
65203;HTU21D;51788;45.124;38.966;2023-05-07T03:40:47;14.62;76.05
65203;HTU21D;51788;45.124;38.966;2023-05-07T03:43:13;14.57;76.03
65203;HTU21D;51788;45.124;38.966;2023-05-07T03:45:43;14.56;76.03
65203;HTU21D;51788;45.124;38.966;2023-05-07T03:48:14;14.52;76.07
65203;HTU21D;51788;45.124;38.966;2023-05-07T03:50:40;14.54;76.02
65203;HTU21D;51788;45.124;38.966;2023-05-07T03:53:06;14.50;75.96
65203;HTU21D;51788;45.124;38.966;2023-05-07T03:55:37;14.51;76.12
65203;HTU21D;51788;45.124;38.966;2023-05-07T03:58:04;14.53;76.01
65203;HTU21D;51788;45.124;38.966;2023-05-07T04:00:30;14.55;75.94
65203;HTU21D;51788;45.124;38.966;2023-05-07T04:02:59;14.56;75.80
65203;HTU21D;51788;45.124;38.966;2023-05-07T04:05:29;14.54;75.71
65203;HTU21D;51788;45.124;38.966;2023-05-07T04:07:59;14.55;75.63
65203;HTU21D;51788;45.124;38.966;2023-05-07T04:10:32;14.55;75.58
65203;HTU21D;51788;45.124;38.966;2023-05-07T04:13:02;14.54;75.54
65203;HTU21D;51788;45.124;38.966;2023-05-07T04:15:28;14.56;75.46
65203;HTU21D;51788;45.124;38.966;2023-05-07T04:17:55;14.59;75.31
65203;HTU21D;51788;45.124;38.966;2023-05-07T04:20:23;14.64;75.14
65203;HTU21D;51788;45.124;38.966;2023-05-07T04:22:56;14.62;75.15
65203;HTU21D;51788;45.124;38.966;2023-05-07T04:25:22;14.62;75.08
65203;HTU21D;51788;45.124;38.966;2023-05-07T04:27:56;14.57;75.15
65203;HTU21D;51788;45.124;38.966;2023-05-07T04:30:25;14.57;75.08
65203;HTU21D;51788;45.124;38.966;2023-05-07T04:32:52;14.58;75.05
65203;HTU21D;51788;45.124;38.966;2023-05-07T04:35:19;14.58;74.92
65203;HTU21D;51788;45.124;38.966;2023-05-07T04:37:45;14.64;74.90
65203;HTU21D;51788;45.124;38.966;2023-05-07T04:40:12;14.63;74.79
65203;HTU21D;51788;45.124;38.966;2023-05-07T04:42:38;14.62;74.83
65203;HTU21D;51788;45.124;38.966;2023-05-07T04:45:05;14.63;74.80
65203;HTU21D;51788;45.124;38.966;2023-05-07T04:47:33;14.62;74.80
65203;HTU21D;51788;45.124;38.966;2023-05-07T04:50:01;14.56;74.85
65203;HTU21D;51788;45.124;38.966;2023-05-07T04:52:27;14.58;74.86
65203;HTU21D;51788;45.124;38.966;2023-05-07T04:54:53;14.57;74.79
65203;HTU21D;51788;45.124;38.966;2023-05-07T04:57:19;14.58;74.80
65203;HTU21D;51788;45.124;38.966;2023-05-07T04:59:45;14.60;74.83
65203;HTU21D;51788;45.124;38.966;2023-05-07T05:02:11;14.64;74.84
65203;HTU21D;51788;45.124;38.966;2023-05-07T05:04:38;14.56;75.00
65203;HTU21D;51788;45.124;38.966;2023-05-07T05:07:05;14.54;75.09
65203;HTU21D;51788;45.124;38.966;2023-05-07T05:09:31;14.57;75.23
65203;HTU21D;51788;45.124;38.966;2023-05-07T05:11:57;14.55;75.19
65203;HTU21D;51788;45.124;38.966;2023-05-07T05:14:23;14.56;75.27
65203;HTU21D;51788;45.124;38.966;2023-05-07T05:16:50;14.55;75.26
65203;HTU21D;51788;45.124;38.966;2023-05-07T05:19:17;14.58;75.18
65203;HTU21D;51788;45.124;38.966;2023-05-07T05:21:44;14.59;75.18
65203;HTU21D;51788;45.124;38.966;2023-05-07T05:24:11;14.65;75.09
65203;HTU21D;51788;45.124;38.966;2023-05-07T05:26:38;14.71;75.13
65203;HTU21D;51788;45.124;38.966;2023-05-07T05:29:04;14.72;75.10
65203;HTU21D;51788;45.124;38.966;2023-05-07T05:31:31;14.68;75.28
65203;HTU21D;51788;45.124;38.966;2023-05-07T05:33:57;14.65;75.36
65203;HTU21D;51788;45.124;38.966;2023-05-07T05:36:24;14.65;75.31
65203;HTU21D;51788;45.124;38.966;2023-05-07T05:38:53;14.70;75.34
65203;HTU21D;51788;45.124;38.966;2023-05-07T05:41:21;14.69;75.28
65203;HTU21D;51788;45.124;38.966;2023-05-07T05:43:48;14.68;75.39
65203;HTU21D;51788;45.124;38.966;2023-05-07T05:46:14;14.66;75.47
65203;HTU21D;51788;45.124;38.966;2023-05-07T05:48:40;14.71;75.47
65203;HTU21D;51788;45.124;38.966;2023-05-07T05:51:07;14.78;75.34
65203;HTU21D;51788;45.124;38.966;2023-05-07T05:53:35;14.79;75.28
65203;HTU21D;51788;45.124;38.966;2023-05-07T05:56:02;14.82;75.33
65203;HTU21D;51788;45.124;38.966;2023-05-07T05:58:30;14.87;75.19
65203;HTU21D;51788;45.124;38.966;2023-05-07T06:01:00;14.88;75.12
65203;HTU21D;51788;45.124;38.966;2023-05-07T06:03:29;14.93;75.17
65203;HTU21D;51788;45.124;38.966;2023-05-07T06:05:58;14.92;75.12
65203;HTU21D;51788;45.124;38.966;2023-05-07T06:08:28;14.89;75.31
65203;HTU21D;51788;45.124;38.966;2023-05-07T06:10:54;15.01;75.26
65203;HTU21D;51788;45.124;38.966;2023-05-07T06:13:21;15.17;74.89
65203;HTU21D;51788;45.124;38.966;2023-05-07T06:15:47;15.25;74.71
65203;HTU21D;51788;45.124;38.966;2023-05-07T06:18:13;15.22;74.74
65203;HTU21D;51788;45.124;38.966;2023-05-07T06:20:40;15.28;74.71
65203;HTU21D;51788;45.124;38.966;2023-05-07T06:23:11;15.40;74.56
65203;HTU21D;51788;45.124;38.966;2023-05-07T06:25:37;15.46;74.43
65203;HTU21D;51788;45.124;38.966;2023-05-07T06:28:03;15.51;74.47
65203;HTU21D;51788;45.124;38.966;2023-05-07T06:30:32;15.57;74.25
65203;HTU21D;51788;45.124;38.966;2023-05-07T06:32:58;15.53;74.36
65203;HTU21D;51788;45.124;38.966;2023-05-07T06:35:25;15.59;74.52
65203;HTU21D;51788;45.124;38.966;2023-05-07T06:37:52;15.65;74.34
65203;HTU21D;51788;45.124;38.966;2023-05-07T06:40:22;15.73;74.25
65203;HTU21D;51788;45.124;38.966;2023-05-07T06:42:49;15.88;73.99
65203;HTU21D;51788;45.124;38.966;2023-05-07T06:45:22;15.92;73.70
65203;HTU21D;51788;45.124;38.966;2023-05-07T06:47:49;15.89;73.87
65203;HTU21D;51788;45.124;38.966;2023-05-07T06:50:16;15.98;73.80
65203;HTU21D;51788;45.124;38.966;2023-05-07T06:52:44;16.10;73.38
65203;HTU21D;51788;45.124;38.966;2023-05-07T06:55:10;16.11;73.32
65203;HTU21D;51788;45.124;38.966;2023-05-07T06:57:37;16.18;73.29
65203;HTU21D;51788;45.124;38.966;2023-05-07T07:00:04;16.25;73.22
65203;HTU21D;51788;45.124;38.966;2023-05-07T07:02:40;16.32;72.90
65203;HTU21D;51788;45.124;38.966;2023-05-07T07:05:08;16.19;73.10
65203;HTU21D;51788;45.124;38.966;2023-05-07T07:07:34;16.12;73.41
65203;HTU21D;51788;45.124;38.966;2023-05-07T07:10:01;16.10;73.51
65203;HTU21D;51788;45.124;38.966;2023-05-07T07:12:28;16.20;73.41
65203;HTU21D;51788;45.124;38.966;2023-05-07T07:14:55;16.26;73.32
65203;HTU21D;51788;45.124;38.966;2023-05-07T07:17:22;16.32;73.12
65203;HTU21D;51788;45.124;38.966;2023-05-07T07:19:48;16.29;73.22
65203;HTU21D;51788;45.124;38.966;2023-05-07T07:22:14;16.28;73.45
65203;HTU21D;51788;45.124;38.966;2023-05-07T07:24:41;16.21;73.48
65203;HTU21D;51788;45.124;38.966;2023-05-07T07:27:09;16.16;73.61
65203;HTU21D;51788;45.124;38.966;2023-05-07T07:29:35;16.10;73.76
65203;HTU21D;51788;45.124;38.966;2023-05-07T07:32:02;16.08;73.96
65203;HTU21D;51788;45.124;38.966;2023-05-07T07:34:28;16.10;74.04
65203;HTU21D;51788;45.124;38.966;2023-05-07T07:36:54;16.14;73.99
65203;HTU21D;51788;45.124;38.966;2023-05-07T07:39:20;16.16;73.98
65203;HTU21D;51788;45.124;38.966;2023-05-07T07:41:49;16.18;73.99
65203;HTU21D;51788;45.124;38.966;2023-05-07T07:44:17;16.22;73.86
65203;HTU21D;51788;45.124;38.966;2023-05-07T07:46:48;16.31;73.78
65203;HTU21D;51788;45.124;38.966;2023-05-07T07:49:16;16.37;73.70
65203;HTU21D;51788;45.124;38.966;2023-05-07T07:51:43;16.48;73.52
65203;HTU21D;51788;45.124;38.966;2023-05-07T07:54:11;16.48;73.50
65203;HTU21D;51788;45.124;38.966;2023-05-07T07:56:38;16.48;73.47
65203;HTU21D;51788;45.124;38.966;2023-05-07T07:59:05;16.44;73.54
65203;HTU21D;51788;45.124;38.966;2023-05-07T08:01:32;16.42;73.67
65203;HTU21D;51788;45.124;38.966;2023-05-07T08:03:59;16.46;73.61
65203;HTU21D;51788;45.124;38.966;2023-05-07T08:06:26;16.47;73.61
65203;HTU21D;51788;45.124;38.966;2023-05-07T08:08:53;16.56;73.53
65203;HTU21D;51788;45.124;38.966;2023-05-07T08:11:19;16.55;73.57
65203;HTU21D;51788;45.124;38.966;2023-05-07T08:13:46;16.59;73.57
65203;HTU21D;51788;45.124;38.966;2023-05-07T08:16:12;16.61;73.48
65203;HTU21D;51788;45.124;38.966;2023-05-07T08:18:39;16.62;73.52
65203;HTU21D;51788;45.124;38.966;2023-05-07T08:21:05;16.69;73.48
65203;HTU21D;51788;45.124;38.966;2023-05-07T08:23:32;16.76;73.37
65203;HTU21D;51788;45.124;38.966;2023-05-07T08:26:00;16.86;73.22
65203;HTU21D;51788;45.124;38.966;2023-05-07T08:28:26;16.87;73.16
65203;HTU21D;51788;45.124;38.966;2023-05-07T08:30:52;16.88;73.22
65203;HTU21D;51788;45.124;38.966;2023-05-07T08:33:18;16.91;73.14
65203;HTU21D;51788;45.124;38.966;2023-05-07T08:35:44;16.95;73.15
65203;HTU21D;51788;45.124;38.966;2023-05-07T08:38:12;16.99;73.03
65203;HTU21D;51788;45.124;38.966;2023-05-07T08:40:39;17.04;72.97
65203;HTU21D;51788;45.124;38.966;2023-05-07T08:43:14;17.11;72.74
65203;HTU21D;51788;45.124;38.966;2023-05-07T08:45:41;17.06;72.75
65203;HTU21D;51788;45.124;38.966;2023-05-07T08:48:15;17.05;72.86
65203;HTU21D;51788;45.124;38.966;2023-05-07T08:50:43;17.10;72.73
65203;HTU21D;51788;45.124;38.966;2023-05-07T08:53:10;17.10;72.64
65203;HTU21D;51788;45.124;38.966;2023-05-07T08:55:38;17.08;72.77
65203;HTU21D;51788;45.124;38.966;2023-05-07T08:58:03;17.15;72.62
65203;HTU21D;51788;45.124;38.966;2023-05-07T09:00:32;17.18;72.48
65203;HTU21D;51788;45.124;38.966;2023-05-07T09:03:00;17.15;72.55
65203;HTU21D;51788;45.124;38.966;2023-05-07T09:05:27;17.15;72.58
65203;HTU21D;51788;45.124;38.966;2023-05-07T09:07:53;17.16;72.55
65203;HTU21D;51788;45.124;38.966;2023-05-07T09:10:22;17.24;72.56
65203;HTU21D;51788;45.124;38.966;2023-05-07T09:12:48;17.36;72.35
65203;HTU21D;51788;45.124;38.966;2023-05-07T09:15:16;17.46;72.12
65203;HTU21D;51788;45.124;38.966;2023-05-07T09:17:43;17.39;72.03
65203;HTU21D;51788;45.124;38.966;2023-05-07T09:20:10;17.43;72.06
65203;HTU21D;51788;45.124;38.966;2023-05-07T09:22:37;17.44;72.05
65203;HTU21D;51788;45.124;38.966;2023-05-07T09:25:07;17.41;72.03
65203;HTU21D;51788;45.124;38.966;2023-05-07T09:27:35;17.46;72.07
65203;HTU21D;51788;45.124;38.966;2023-05-07T09:30:06;17.52;71.97
65203;HTU21D;51788;45.124;38.966;2023-05-07T09:32:36;17.54;71.81
65203;HTU21D;51788;45.124;38.966;2023-05-07T09:35:17;17.51;71.82
65203;HTU21D;51788;45.124;38.966;2023-05-07T09:37:46;17.50;71.84
65203;HTU21D;51788;45.124;38.966;2023-05-07T09:40:27;17.51;72.05
65203;HTU21D;51788;45.124;38.966;2023-05-07T09:42:56;17.53;71.93
65203;HTU21D;51788;45.124;38.966;2023-05-07T09:45:28;17.56;71.97
65203;HTU21D;51788;45.124;38.966;2023-05-07T09:47:56;17.59;71.95
65203;HTU21D;51788;45.124;38.966;2023-05-07T09:50:28;17.51;72.09
65203;HTU21D;51788;45.124;38.966;2023-05-07T09:52:55;17.56;72.08
65203;HTU21D;51788;45.124;38.966;2023-05-07T09:55:23;17.63;71.96
65203;HTU21D;51788;45.124;38.966;2023-05-07T09:57:53;17.72;71.90
65203;HTU21D;51788;45.124;38.966;2023-05-07T10:00:21;17.74;71.81
65203;HTU21D;51788;45.124;38.966;2023-05-07T10:02:48;17.77;71.73
65203;HTU21D;51788;45.124;38.966;2023-05-07T10:05:19;17.79;71.76
65203;HTU21D;51788;45.124;38.966;2023-05-07T10:07:46;17.81;71.62
65203;HTU21D;51788;45.124;38.966;2023-05-07T10:10:14;17.72;71.93
65203;HTU21D;51788;45.124;38.966;2023-05-07T10:12:43;17.67;72.16
65203;HTU21D;51788;45.124;38.966;2023-05-07T10:15:18;17.66;72.14
65203;HTU21D;51788;45.124;38.966;2023-05-07T10:17:49;17.65;72.29
65203;HTU21D;51788;45.124;38.966;2023-05-07T10:20:16;17.74;72.20
65203;HTU21D;51788;45.124;38.966;2023-05-07T10:22:47;17.74;72.23
65203;HTU21D;51788;45.124;38.966;2023-05-07T10:25:28;17.77;72.35
65203;HTU21D;51788;45.124;38.966;2023-05-07T10:28:00;17.80;72.19
65203;HTU21D;51788;45.124;38.966;2023-05-07T10:30:58;17.75;72.33
65203;HTU21D;51788;45.124;38.966;2023-05-07T10:33:33;17.73;72.40
65203;HTU21D;51788;45.124;38.966;2023-05-07T10:36:02;17.74;72.45
65203;HTU21D;51788;45.124;38.966;2023-05-07T10:38:31;17.78;72.37
65203;HTU21D;51788;45.124;38.966;2023-05-07T10:40:59;17.80;72.45
65203;HTU21D;51788;45.124;38.966;2023-05-07T10:43:41;17.85;72.42
65203;HTU21D;51788;45.124;38.966;2023-05-07T10:46:15;17.90;72.52
65203;HTU21D;51788;45.124;38.966;2023-05-07T10:52:17;17.76;72.70
65203;HTU21D;51788;45.124;38.966;2023-05-07T11:00:59;17.68;72.75
65203;HTU21D;51788;45.124;38.966;2023-05-07T11:03:32;17.69;72.70
65203;HTU21D;51788;45.124;38.966;2023-05-07T11:08:53;17.73;72.72
65203;HTU21D;51788;45.124;38.966;2023-05-07T11:11:55;17.70;72.98
65203;HTU21D;51788;45.124;38.966;2023-05-07T11:14:52;17.73;73.01
65203;HTU21D;51788;45.124;38.966;2023-05-07T11:17:33;17.65;72.79
65203;HTU21D;51788;45.124;38.966;2023-05-07T11:20:06;17.64;73.05
65203;HTU21D;51788;45.124;38.966;2023-05-07T11:22:52;17.64;73.03
65203;HTU21D;51788;45.124;38.966;2023-05-07T11:25:26;17.63;73.14
65203;HTU21D;51788;45.124;38.966;2023-05-07T11:28:07;17.52;73.64
65203;HTU21D;51788;45.124;38.966;2023-05-07T11:30:42;17.46;73.93
65203;HTU21D;51788;45.124;38.966;2023-05-07T11:33:10;17.36;74.78
65203;HTU21D;51788;45.124;38.966;2023-05-07T11:35:37;17.29;75.15
65203;HTU21D;51788;45.124;38.966;2023-05-07T11:38:06;17.23;75.27
65203;HTU21D;51788;45.124;38.966;2023-05-07T11:40:34;17.28;75.47
65203;HTU21D;51788;45.124;38.966;2023-05-07T11:43:10;17.29;75.34
65203;HTU21D;51788;45.124;38.966;2023-05-07T11:45:36;17.31;75.37
65203;HTU21D;51788;45.124;38.966;2023-05-07T11:48:02;17.38;75.21
65203;HTU21D;51788;45.124;38.966;2023-05-07T11:50:28;17.39;75.04
65203;HTU21D;51788;45.124;38.966;2023-05-07T11:52:54;17.30;75.60
65203;HTU21D;51788;45.124;38.966;2023-05-07T11:55:20;17.18;76.16
65203;HTU21D;51788;45.124;38.966;2023-05-07T11:57:51;17.06;76.93
65203;HTU21D;51788;45.124;38.966;2023-05-07T12:00:19;17.02;77.32
65203;HTU21D;51788;45.124;38.966;2023-05-07T12:02:45;16.89;78.01
65203;HTU21D;51788;45.124;38.966;2023-05-07T12:05:12;16.69;78.82
65203;HTU21D;51788;45.124;38.966;2023-05-07T12:07:38;16.60;79.59
65203;HTU21D;51788;45.124;38.966;2023-05-07T12:10:07;16.54;80.04
65203;HTU21D;51788;45.124;38.966;2023-05-07T12:12:45;16.42;81.23
65203;HTU21D;51788;45.124;38.966;2023-05-07T12:15:16;16.34;81.51
65203;HTU21D;51788;45.124;38.966;2023-05-07T12:17:43;16.30;81.99
65203;HTU21D;51788;45.124;38.966;2023-05-07T12:20:11;16.16;82.41
65203;HTU21D;51788;45.124;38.966;2023-05-07T12:22:38;16.08;83.04
65203;HTU21D;51788;45.124;38.966;2023-05-07T12:25:04;16.08;83.35
65203;HTU21D;51788;45.124;38.966;2023-05-07T12:27:31;16.08;83.92
65203;HTU21D;51788;45.124;38.966;2023-05-07T12:29:58;16.05;84.36
65203;HTU21D;51788;45.124;38.966;2023-05-07T12:32:27;16.03;84.62
65203;HTU21D;51788;45.124;38.966;2023-05-07T12:34:54;15.96;84.50
65203;HTU21D;51788;45.124;38.966;2023-05-07T12:37:25;15.93;84.55
65203;HTU21D;51788;45.124;38.966;2023-05-07T12:40:10;15.92;84.97
65203;HTU21D;51788;45.124;38.966;2023-05-07T12:42:39;15.92;84.92
65203;HTU21D;51788;45.124;38.966;2023-05-07T12:45:12;15.93;85.25
65203;HTU21D;51788;45.124;38.966;2023-05-07T12:47:38;15.91;84.84
65203;HTU21D;51788;45.124;38.966;2023-05-07T12:50:07;15.96;84.92
65203;HTU21D;51788;45.124;38.966;2023-05-07T12:52:34;16.02;85.20
65203;HTU21D;51788;45.124;38.966;2023-05-07T12:55:12;16.03;85.06
65203;HTU21D;51788;45.124;38.966;2023-05-07T12:57:48;15.99;85.31
65203;HTU21D;51788;45.124;38.966;2023-05-07T13:00:15;16.02;85.38
65203;HTU21D;51788;45.124;38.966;2023-05-07T13:02:42;15.99;85.22
65203;HTU21D;51788;45.124;38.966;2023-05-07T13:05:11;16.06;85.13
65203;HTU21D;51788;45.124;38.966;2023-05-07T13:07:37;16.18;84.76
65203;HTU21D;51788;45.124;38.966;2023-05-07T13:10:04;16.35;84.17
65203;HTU21D;51788;45.124;38.966;2023-05-07T13:12:30;16.54;83.35
65203;HTU21D;51788;45.124;38.966;2023-05-07T13:14:56;16.64;82.82
65203;HTU21D;51788;45.124;38.966;2023-05-07T13:17:22;16.71;82.46
65203;HTU21D;51788;45.124;38.966;2023-05-07T13:19:48;16.75;82.20
65203;HTU21D;51788;45.124;38.966;2023-05-07T13:22:14;16.84;81.89
65203;HTU21D;51788;45.124;38.966;2023-05-07T13:24:40;16.87;81.70
65203;HTU21D;51788;45.124;38.966;2023-05-07T13:27:07;16.91;81.60
65203;HTU21D;51788;45.124;38.966;2023-05-07T13:29:33;16.93;81.51
65203;HTU21D;51788;45.124;38.966;2023-05-07T13:31:59;16.95;81.49
65203;HTU21D;51788;45.124;38.966;2023-05-07T13:34:25;17.02;81.46
65203;HTU21D;51788;45.124;38.966;2023-05-07T13:36:51;17.05;81.20
65203;HTU21D;51788;45.124;38.966;2023-05-07T13:39:17;17.08;81.00
65203;HTU21D;51788;45.124;38.966;2023-05-07T13:41:43;17.09;80.78
65203;HTU21D;51788;45.124;38.966;2023-05-07T13:44:10;17.04;80.85
65203;HTU21D;51788;45.124;38.966;2023-05-07T13:46:35;17.01;80.98
65203;HTU21D;51788;45.124;38.966;2023-05-07T13:49:02;17.01;80.81
65203;HTU21D;51788;45.124;38.966;2023-05-07T13:51:28;17.01;80.85
65203;HTU21D;51788;45.124;38.966;2023-05-07T13:53:55;17.02;80.75
65203;HTU21D;51788;45.124;38.966;2023-05-07T13:56:21;16.99;80.85
65203;HTU21D;51788;45.124;38.966;2023-05-07T13:58:47;16.98;80.94
65203;HTU21D;51788;45.124;38.966;2023-05-07T14:01:13;16.96;80.86
65203;HTU21D;51788;45.124;38.966;2023-05-07T14:03:38;16.96;80.76
65203;HTU21D;51788;45.124;38.966;2023-05-07T14:06:05;16.99;80.52
65203;HTU21D;51788;45.124;38.966;2023-05-07T14:08:31;16.98;80.49
65203;HTU21D;51788;45.124;38.966;2023-05-07T14:10:57;16.96;80.47
65203;HTU21D;51788;45.124;38.966;2023-05-07T14:13:23;16.98;80.45
65203;HTU21D;51788;45.124;38.966;2023-05-07T14:15:49;16.98;80.40
65203;HTU21D;51788;45.124;38.966;2023-05-07T14:18:15;16.96;80.36
65203;HTU21D;51788;45.124;38.966;2023-05-07T14:20:41;16.93;80.31
65203;HTU21D;51788;45.124;38.966;2023-05-07T14:23:09;16.89;80.33
65203;HTU21D;51788;45.124;38.966;2023-05-07T14:25:35;16.88;80.29
65203;HTU21D;51788;45.124;38.966;2023-05-07T14:28:01;16.86;80.30
65203;HTU21D;51788;45.124;38.966;2023-05-07T14:30:27;16.87;80.22
65203;HTU21D;51788;45.124;38.966;2023-05-07T14:32:53;16.85;80.20
65203;HTU21D;51788;45.124;38.966;2023-05-07T14:35:19;16.79;80.51
65203;HTU21D;51788;45.124;38.966;2023-05-07T14:37:45;16.74;80.70
65203;HTU21D;51788;45.124;38.966;2023-05-07T14:40:11;16.69;80.89
65203;HTU21D;51788;45.124;38.966;2023-05-07T14:42:37;16.57;81.24
65203;HTU21D;51788;45.124;38.966;2023-05-07T14:45:03;16.50;81.53
65203;HTU21D;51788;45.124;38.966;2023-05-07T14:47:29;16.46;81.72
65203;HTU21D;51788;45.124;38.966;2023-05-07T14:49:55;16.48;81.86
65203;HTU21D;51788;45.124;38.966;2023-05-07T14:52:22;16.48;81.65
65203;HTU21D;51788;45.124;38.966;2023-05-07T14:54:48;16.49;81.62
65203;HTU21D;51788;45.124;38.966;2023-05-07T14:57:15;16.51;81.46
65203;HTU21D;51788;45.124;38.966;2023-05-07T14:59:45;16.48;81.34
65203;HTU21D;51788;45.124;38.966;2023-05-07T15:02:12;16.50;81.21
65203;HTU21D;51788;45.124;38.966;2023-05-07T15:04:38;16.58;80.63
65203;HTU21D;51788;45.124;38.966;2023-05-07T15:07:14;16.55;80.63
65203;HTU21D;51788;45.124;38.966;2023-05-07T15:09:42;16.51;80.48
65203;HTU21D;51788;45.124;38.966;2023-05-07T15:12:08;16.48;80.43
65203;HTU21D;51788;45.124;38.966;2023-05-07T15:14:34;16.43;80.59
65203;HTU21D;51788;45.124;38.966;2023-05-07T15:17:00;16.40;80.44
65203;HTU21D;51788;45.124;38.966;2023-05-07T15:19:26;16.39;80.29